createdAt,value
2023-04-14T00:02:15.593Z,3.80
2023-04-14T00:05:22.322Z,3.30
2023-04-14T00:08:29.092Z,3.67
2023-04-14T00:11:36.696Z,3.43
2023-04-14T00:14:43.719Z,22.40
2023-04-14T00:17:51.110Z,8.03
2023-04-14T00:20:57.252Z,4.13
2023-04-14T00:24:03.335Z,4.77
2023-04-14T00:27:11.260Z,4.30
2023-04-14T00:30:17.327Z,4.60
2023-04-14T00:33:23.612Z,4.80
2023-04-14T00:36:29.673Z,4.13
2023-04-14T00:39:35.832Z,3.77
2023-04-14T00:42:47.148Z,3.80
2023-04-14T00:45:53.722Z,3.77
2023-04-14T00:48:59.856Z,3.83
2023-04-14T00:52:07.549Z,3.20
2023-04-14T00:55:13.846Z,3.20
2023-04-14T00:58:21.687Z,3.67
2023-04-14T01:01:29.316Z,4.37
2023-04-14T01:04:52.209Z,3.90
2023-04-14T01:08:00.167Z,3.37
2023-04-14T01:11:16.136Z,3.63
2023-04-14T01:14:37.642Z,3.47
2023-04-14T01:17:51.215Z,3.17
2023-04-14T01:21:03.914Z,3.60
2023-04-14T01:24:51.727Z,3.53
2023-04-14T01:28:12.004Z,3.90
2023-04-14T01:31:26.986Z,3.87
2023-04-14T01:34:37.902Z,4.07
2023-04-14T01:37:48.870Z,3.87
2023-04-14T01:40:59.184Z,4.17
2023-04-14T01:44:07.912Z,5.40
2023-04-14T01:47:19.151Z,4.90
2023-04-14T01:50:26.586Z,4.27
2023-04-14T01:53:34.274Z,5.10
2023-04-14T01:56:42.290Z,8.40
2023-04-14T01:59:49.964Z,12.27
2023-04-14T02:02:58.537Z,12.20
2023-04-14T02:06:06.406Z,5.20
2023-04-14T02:09:13.995Z,4.07
2023-04-14T02:12:22.429Z,3.83
2023-04-14T02:15:29.333Z,4.07
2023-04-14T02:18:38.968Z,3.80
2023-04-14T02:21:46.482Z,4.10
2023-04-14T02:24:55.344Z,3.70
2023-04-14T02:28:05.154Z,4.47
2023-04-14T02:31:16.797Z,4.40
2023-04-14T02:34:29.676Z,3.83
2023-04-14T02:37:45.252Z,3.93
2023-04-14T02:40:52.433Z,5.13
2023-04-14T02:44:05.864Z,4.83
2023-04-14T02:47:15.016Z,4.43
2023-04-14T02:50:24.642Z,4.33
2023-04-14T02:53:31.391Z,4.83
2023-04-14T02:56:37.780Z,4.20
2023-04-14T02:59:47.122Z,4.77
2023-04-14T03:02:54.611Z,6.27
2023-04-14T03:06:02.386Z,4.60
2023-04-14T03:09:08.973Z,5.90
2023-04-14T03:12:16.119Z,5.83
2023-04-14T03:15:23.980Z,6.37
2023-04-14T03:18:32.254Z,6.80
2023-04-14T03:21:40.731Z,8.17
2023-04-14T03:24:47.454Z,7.70
2023-04-14T03:27:55.729Z,7.53
2023-04-14T03:31:06.512Z,6.80
2023-04-14T03:34:15.514Z,7.47
2023-04-14T03:37:27.510Z,7.57
2023-04-14T03:40:38.562Z,7.23
2023-04-14T03:43:46.807Z,7.50
2023-04-14T03:46:54.664Z,6.60
2023-04-14T03:50:04.536Z,5.97
2023-04-14T03:53:14.466Z,5.93
2023-04-14T03:56:21.372Z,7.57
2023-04-14T03:59:29.648Z,8.40
2023-04-14T04:02:37.413Z,9.27
2023-04-14T04:05:45.328Z,9.57
2023-04-14T04:08:55.640Z,10.17
2023-04-14T04:12:04.636Z,12.67
2023-04-14T04:15:11.521Z,19.80
2023-04-14T04:18:19.577Z,12.27
2023-04-14T04:21:30.083Z,15.90
2023-04-14T04:24:40.477Z,16.87
2023-04-14T04:27:47.722Z,20.10
2023-04-14T04:30:56.182Z,12.00
2023-04-14T04:34:04.319Z,8.33
2023-04-14T04:37:12.079Z,8.50
2023-04-14T04:40:19.925Z,9.73
2023-04-14T04:43:26.185Z,19.53
2023-04-14T04:46:49.902Z,12.80
2023-04-14T04:49:56.600Z,17.07
2023-04-14T04:53:02.931Z,17.17
2023-04-14T04:56:10.666Z,16.47
2023-04-14T04:59:17.093Z,21.20
2023-04-14T05:02:23.467Z,19.13
2023-04-14T05:05:29.757Z,17.00
2023-04-14T05:08:35.991Z,18.53
2023-04-14T05:11:43.552Z,18.97
2023-04-14T05:14:49.624Z,18.30
2023-04-14T05:17:55.853Z,17.07
2023-04-14T05:21:05.574Z,24.43
2023-04-14T05:24:11.675Z,17.50
2023-04-14T05:27:19.097Z,16.20
2023-04-14T05:30:26.619Z,11.30
2023-04-14T05:33:32.641Z,15.10
2023-04-14T05:36:38.690Z,13.97
2023-04-14T05:39:45.060Z,13.03
2023-04-14T05:43:11.634Z,19.60
2023-04-14T05:46:17.999Z,16.17
2023-04-14T05:49:24.637Z,9.57
2023-04-14T05:52:31.017Z,8.23
2023-04-14T05:55:37.234Z,6.13
2023-04-14T05:58:44.737Z,5.57
2023-04-14T06:01:51.709Z,4.93
2023-04-14T06:04:59.860Z,5.37
2023-04-14T06:08:06.280Z,6.30
2023-04-14T06:11:13.588Z,5.70
2023-04-14T06:14:21.182Z,5.33
2023-04-14T06:17:28.240Z,4.27
2023-04-14T06:20:36.297Z,4.33
2023-04-14T06:23:42.476Z,9.20
2023-04-14T06:26:49.165Z,8.30
2023-04-14T06:30:00.258Z,7.73
2023-04-14T06:33:06.387Z,6.93
2023-04-14T06:36:13.940Z,8.80
2023-04-14T06:39:21.235Z,6.87
2023-04-14T06:42:27.526Z,9.00
2023-04-14T06:45:35.242Z,6.97
2023-04-14T06:48:41.711Z,8.43
2023-04-14T06:51:48.041Z,12.60
2023-04-14T06:54:54.344Z,13.23
2023-04-14T06:58:00.431Z,9.13
2023-04-14T07:01:08.032Z,11.10
2023-04-14T07:04:15.624Z,11.77
2023-04-14T07:07:21.819Z,9.83
2023-04-14T07:10:27.991Z,7.63
2023-04-14T07:13:34.578Z,10.20
2023-04-14T07:16:41.975Z,15.00
2023-04-14T07:19:48.461Z,14.67
2023-04-14T07:22:54.438Z,11.03
2023-04-14T07:26:01.619Z,4.97
2023-04-14T07:29:07.943Z,4.13
2023-04-14T07:32:16.091Z,3.63
2023-04-14T07:35:22.516Z,3.00
2023-04-14T07:38:28.750Z,4.37
2023-04-14T07:41:34.931Z,4.40
2023-04-14T07:44:41.351Z,4.17
2023-04-14T07:47:49.357Z,4.00
2023-04-14T07:50:55.925Z,4.00
2023-04-14T07:54:02.711Z,3.97
2023-04-14T07:57:10.988Z,4.87
2023-04-14T08:00:17.831Z,4.73
2023-04-14T08:03:25.674Z,7.20
2023-04-14T08:06:32.147Z,3.73
2023-04-14T08:09:38.265Z,4.10
2023-04-14T08:12:44.487Z,4.57
2023-04-14T08:15:50.822Z,3.57
2023-04-14T08:18:58.390Z,3.03
2023-04-14T08:22:04.430Z,4.23
2023-04-14T08:25:12.216Z,4.60
2023-04-14T08:28:18.613Z,4.17
2023-04-14T08:31:25.843Z,3.30
2023-04-14T08:34:33.821Z,5.07
2023-04-14T08:37:40.314Z,4.03
2023-04-14T08:40:49.014Z,5.40
2023-04-14T08:43:55.393Z,3.87
2023-04-14T08:47:02.002Z,4.83
2023-04-14T08:50:16.869Z,6.73
2023-04-14T08:53:27.520Z,5.70
2023-04-14T08:56:38.300Z,5.90
2023-04-14T08:59:45.709Z,6.70
2023-04-14T09:02:52.876Z,5.30
2023-04-14T09:06:01.715Z,4.70
2023-04-14T09:09:08.153Z,4.63
2023-04-14T09:12:17.310Z,4.13
2023-04-14T09:15:25.560Z,4.33
2023-04-14T09:18:34.873Z,4.47
2023-04-14T09:21:52.525Z,5.00
2023-04-14T09:25:01.113Z,4.43
2023-04-14T09:28:07.858Z,3.87
2023-04-14T09:31:14.686Z,5.50
2023-04-14T09:34:22.264Z,9.07
2023-04-14T09:37:43.704Z,5.97
2023-04-14T09:40:50.115Z,5.07
2023-04-14T09:43:56.474Z,4.70
2023-04-14T09:47:05.224Z,4.80
2023-04-14T09:50:12.276Z,5.83
2023-04-14T09:53:27.190Z,9.50
2023-04-14T09:56:33.344Z,10.03
2023-04-14T09:59:40.718Z,6.20
2023-04-14T10:02:51.530Z,6.03
2023-04-14T10:05:57.639Z,7.03
2023-04-14T10:09:06.090Z,5.87
2023-04-14T10:12:13.540Z,5.50
2023-04-14T10:15:19.639Z,4.47
2023-04-14T10:18:25.716Z,5.47
2023-04-14T10:21:32.035Z,5.87
2023-04-14T10:24:41.844Z,6.47
2023-04-14T10:27:49.721Z,5.73
2023-04-14T10:30:57.566Z,4.30
2023-04-14T10:34:09.122Z,4.83
2023-04-14T10:37:16.470Z,4.77
2023-04-14T10:40:24.402Z,5.70
2023-04-14T10:43:30.772Z,4.20
2023-04-14T10:46:44.927Z,5.73
2023-04-14T10:49:51.074Z,5.77
2023-04-14T10:52:59.020Z,5.53
2023-04-14T10:56:07.480Z,3.07
2023-04-14T10:59:13.979Z,2.80
2023-04-14T11:02:25.035Z,4.13
2023-04-14T11:05:33.383Z,3.67
2023-04-14T11:08:39.760Z,3.50
2023-04-14T11:11:49.547Z,3.83
2023-04-14T11:15:03.895Z,4.50
2023-04-14T11:18:13.823Z,4.57
2023-04-14T11:21:20.509Z,4.00
2023-04-14T11:24:27.632Z,4.07
2023-04-14T11:27:36.276Z,3.27
2023-04-14T11:30:44.256Z,5.87
2023-04-14T11:33:51.070Z,4.37
2023-04-14T11:36:58.039Z,3.70
2023-04-14T11:40:05.666Z,2.73
2023-04-14T11:43:13.312Z,2.53
2023-04-14T11:46:22.245Z,3.53
2023-04-14T11:49:36.723Z,3.70
2023-04-14T11:52:46.252Z,4.20
2023-04-14T11:55:54.085Z,3.40
2023-04-14T11:59:03.239Z,6.13
2023-04-14T12:02:17.540Z,5.20
2023-04-14T12:05:30.512Z,6.10
2023-04-14T12:08:37.092Z,3.13
2023-04-14T12:11:43.412Z,3.37
2023-04-14T12:14:51.554Z,2.87
2023-04-14T12:17:58.517Z,3.43
2023-04-14T12:21:08.796Z,3.43
2023-04-14T12:24:17.294Z,2.87
2023-04-14T12:27:24.760Z,3.13
2023-04-14T12:30:32.536Z,4.53
2023-04-14T12:33:39.100Z,4.40
2023-04-14T12:36:52.213Z,4.80
2023-04-14T12:40:01.079Z,2.47
2023-04-14T12:43:08.383Z,3.03
2023-04-14T12:46:26.016Z,3.13
2023-04-14T12:49:39.939Z,3.03
2023-04-14T12:52:46.446Z,3.87
2023-04-14T12:56:07.210Z,5.20
2023-04-14T12:59:14.877Z,2.20
2023-04-14T13:02:23.386Z,3.20
2023-04-14T13:05:30.121Z,3.33
2023-04-14T13:08:36.549Z,3.40
2023-04-14T13:11:44.384Z,4.20
2023-04-14T13:14:50.869Z,4.27
2023-04-14T13:17:58.623Z,6.27
2023-04-14T13:21:05.366Z,3.33
2023-04-14T13:24:11.748Z,4.73
2023-04-14T13:27:18.339Z,4.77
2023-04-14T13:30:24.557Z,4.67
2023-04-14T13:33:32.205Z,4.10
2023-04-14T13:36:38.801Z,5.10
2023-04-14T13:39:45.093Z,5.53
2023-04-14T13:42:51.185Z,5.73
2023-04-14T13:45:59.250Z,4.93
2023-04-14T13:49:07.192Z,8.87
2023-04-14T13:52:13.601Z,5.17
2023-04-14T13:55:20.451Z,7.13
2023-04-14T13:58:27.029Z,5.90
2023-04-14T14:01:33.514Z,7.93
2023-04-14T14:04:41.359Z,5.03
2023-04-14T14:07:47.619Z,5.47
2023-04-14T14:10:54.601Z,12.10
2023-04-14T14:14:01.740Z,8.17
2023-04-14T14:17:08.472Z,6.60
2023-04-14T14:20:16.389Z,8.87
2023-04-14T14:23:22.822Z,6.53
2023-04-14T14:26:29.265Z,5.60
2023-04-14T14:29:36.001Z,14.73
2023-04-14T14:32:42.503Z,6.10
2023-04-14T14:35:51.116Z,27.63
2023-04-14T14:38:57.956Z,16.07
2023-04-14T14:42:04.704Z,14.97
2023-04-14T14:45:12.098Z,10.43
2023-04-14T14:48:18.375Z,26.70
2023-04-14T14:51:27.836Z,33.50
2023-04-14T14:54:34.385Z,14.27
2023-04-14T14:57:41.266Z,16.83
2023-04-14T15:00:48.095Z,15.23
2023-04-14T15:03:55.893Z,12.47
2023-04-14T15:07:03.742Z,10.90
2023-04-14T15:10:10.785Z,13.70
2023-04-14T15:13:17.379Z,22.57
2023-04-14T15:16:23.521Z,17.43
2023-04-14T15:19:29.840Z,12.97
2023-04-14T15:22:37.889Z,11.20
2023-04-14T15:25:44.181Z,9.70
2023-04-14T15:28:50.438Z,7.63
2023-04-14T15:31:56.642Z,6.50
2023-04-14T15:35:02.973Z,8.57
2023-04-14T15:38:10.619Z,10.20
2023-04-14T15:41:17.211Z,20.73
2023-04-14T15:44:24.186Z,12.63
2023-04-14T15:47:31.816Z,15.93
2023-04-14T15:50:44.595Z,17.00
2023-04-14T15:53:52.992Z,28.77
2023-04-14T15:56:59.112Z,25.53
2023-04-14T16:00:07.759Z,21.13
2023-04-14T16:03:14.959Z,15.13
2023-04-14T16:06:21.579Z,22.47
2023-04-14T16:09:29.372Z,26.60
2023-04-14T16:12:36.756Z,20.63
2023-04-14T16:15:42.889Z,11.80
2023-04-14T16:18:49.400Z,10.90
2023-04-14T16:21:58.626Z,8.13
2023-04-14T16:25:07.506Z,10.87
2023-04-14T16:28:13.580Z,10.10
2023-04-14T16:31:19.734Z,11.33
2023-04-14T16:34:25.998Z,12.00
2023-04-14T16:37:32.600Z,13.17
2023-04-14T16:40:41.470Z,12.23
2023-04-14T16:43:47.837Z,15.50
2023-04-14T16:46:54.158Z,11.10
2023-04-14T16:50:00.631Z,17.13
2023-04-14T16:53:06.849Z,13.57
2023-04-14T16:56:14.417Z,11.80
2023-04-14T16:59:20.658Z,11.83
2023-04-14T17:02:27.245Z,12.97
2023-04-14T17:05:33.837Z,12.97
2023-04-14T17:08:40.554Z,19.33
2023-04-14T17:11:48.882Z,16.50
2023-04-14T17:14:55.149Z,11.30
2023-04-14T17:18:01.565Z,13.27
2023-04-14T17:21:08.010Z,11.47
2023-04-14T17:24:14.803Z,9.70
2023-04-14T17:27:23.115Z,9.27
2023-04-14T17:30:30.125Z,14.23
2023-04-14T17:33:36.483Z,17.67
2023-04-14T17:36:43.086Z,17.60
2023-04-14T17:39:50.167Z,21.37
2023-04-14T17:42:58.689Z,13.77
2023-04-14T17:46:05.694Z,15.63
2023-04-14T17:49:11.778Z,13.43
2023-04-14T17:52:18.226Z,14.23
2023-04-14T17:55:24.395Z,18.73
2023-04-14T17:58:32.756Z,17.10
2023-04-14T18:01:39.023Z,17.67
2023-04-14T18:04:45.697Z,11.40
2023-04-14T18:07:52.157Z,16.03
2023-04-14T18:11:00.024Z,24.03
2023-04-14T18:14:08.702Z,24.23
2023-04-14T18:17:15.426Z,23.80
2023-04-14T18:20:25.793Z,22.43
2023-04-14T18:23:32.190Z,16.07
2023-04-14T18:26:38.640Z,15.77
2023-04-14T18:29:46.551Z,25.10
2023-04-14T18:32:53.864Z,27.67
2023-04-14T18:36:00.765Z,28.73
2023-04-14T18:39:07.960Z,20.00
2023-04-14T18:42:15.522Z,18.93
2023-04-14T18:45:23.499Z,19.23
2023-04-14T18:48:30.243Z,18.83
2023-04-14T18:51:36.393Z,16.53
2023-04-14T18:54:42.968Z,19.37
2023-04-14T18:57:49.616Z,20.37
2023-04-14T19:00:57.781Z,17.70
2023-04-14T19:04:04.152Z,12.83
2023-04-14T19:07:10.438Z,9.53
2023-04-14T19:10:16.478Z,13.73
2023-04-14T19:13:22.460Z,11.33
2023-04-14T19:16:30.116Z,12.37
2023-04-14T19:19:36.583Z,23.33
2023-04-14T19:22:42.552Z,13.33
2023-04-14T19:25:48.867Z,13.73
2023-04-14T19:28:58.671Z,11.43
2023-04-14T19:32:06.719Z,11.07
2023-04-14T19:35:13.245Z,10.37
2023-04-14T19:38:20.394Z,10.10
2023-04-14T19:41:26.400Z,10.00
2023-04-14T19:44:34.449Z,11.67
2023-04-14T19:47:42.488Z,14.10
2023-04-14T19:50:53.270Z,18.77
2023-04-14T19:54:01.151Z,15.83
2023-04-14T19:57:08.632Z,14.33
2023-04-14T20:00:16.882Z,14.77
2023-04-14T20:03:25.446Z,15.90
2023-04-14T20:06:32.945Z,14.87
2023-04-14T20:09:44.894Z,20.57
2023-04-14T20:12:51.875Z,18.77
2023-04-14T20:15:58.664Z,18.33
2023-04-14T20:19:06.551Z,16.37
2023-04-14T20:22:13.542Z,10.03
2023-04-14T20:25:19.890Z,14.17
2023-04-14T20:28:26.735Z,14.33
2023-04-14T20:31:33.298Z,18.93
2023-04-14T20:34:40.907Z,15.73
2023-04-14T20:37:47.669Z,15.90
2023-04-14T20:40:55.304Z,15.63
2023-04-14T20:44:01.915Z,11.23
2023-04-14T20:47:08.466Z,12.03
2023-04-14T20:50:16.821Z,11.10
2023-04-14T20:53:26.693Z,13.10
2023-04-14T20:56:34.219Z,12.80
2023-04-14T20:59:40.753Z,13.77
2023-04-14T21:02:48.887Z,13.17
2023-04-14T21:05:56.761Z,8.03
2023-04-14T21:09:03.445Z,7.00
2023-04-14T21:12:14.301Z,17.80
2023-04-14T21:15:48.361Z,21.23
2023-04-14T21:18:49.337Z,18.47
2023-04-14T21:21:56.661Z,25.33
2023-04-14T21:25:03.073Z,37.07
2023-04-14T21:28:09.347Z,16.73
2023-04-14T21:31:15.964Z,13.30
2023-04-14T21:34:22.481Z,7.97
2023-04-14T21:37:30.473Z,9.90
2023-04-14T21:40:37.001Z,8.97
2023-04-14T21:43:43.209Z,10.20
2023-04-14T21:57:48.574Z,5.10
2023-04-14T22:00:48.287Z,6.40
2023-04-14T22:03:56.038Z,8.03
2023-04-14T22:07:03.586Z,8.20
2023-04-14T22:10:10.541Z,60.60
2023-04-14T22:13:18.212Z,14.43
2023-04-14T22:16:25.593Z,15.67
2023-04-14T22:19:32.018Z,10.47
2023-04-14T22:22:38.405Z,3.20
2023-04-14T22:25:44.869Z,2.90
2023-04-14T22:28:52.887Z,4.53
2023-04-14T22:31:58.856Z,3.70
2023-04-14T22:35:05.411Z,4.90
2023-04-14T22:38:12.219Z,6.37
2023-04-14T22:41:19.778Z,11.73
2023-04-14T22:44:27.528Z,11.73
2023-04-14T22:47:34.155Z,11.53
2023-04-14T22:50:40.573Z,10.27
2023-04-14T22:53:47.004Z,9.20
2023-04-14T22:56:53.849Z,10.50
2023-04-14T23:00:09.094Z,12.10
2023-04-14T23:03:15.756Z,12.37
2023-04-14T23:06:23.010Z,10.23
2023-04-14T23:09:30.668Z,6.90
2023-04-14T23:12:37.513Z,7.50
2023-04-14T23:15:45.481Z,7.20
2023-04-14T23:18:53.120Z,5.83
2023-04-14T23:21:59.019Z,4.80
2023-04-14T23:25:05.288Z,4.20
2023-04-14T23:28:12.485Z,4.83
2023-04-14T23:31:19.927Z,8.33
2023-04-14T23:34:26.234Z,9.63
2023-04-14T23:37:32.444Z,8.40
2023-04-14T23:40:38.686Z,8.83
2023-04-14T23:43:46.246Z,6.90
2023-04-14T23:46:54.011Z,4.80
2023-04-14T23:50:00.664Z,4.93
2023-04-14T23:53:06.930Z,5.43
2023-04-14T23:56:13.220Z,5.20
2023-04-14T23:59:19.372Z,23.50
